Time;durP1;ratioP1;P1;durP2;ratioP2;P2;SDS_P1;SDS_P2;PMS_P1;PMS_P2;Temp;Humidity;BMP_temperature;BMP_pressure;BME280_temperature;BME280_humidity;BME280_pressure;Samples;Min_cycle;Max_cycle;Signal;HPM_P1;HPM_P2
2023/04/17 00:01:39;;;;;;;24.23;15.38;;;;;;;;;;4944148;28;20070;-71
2023/04/17 00:04:09;;;;;;;27.90;15.88;;;;;;;;;;4963070;28;20100;-71
2023/04/17 00:06:36;;;;;;;29.45;16.08;;;;;;;;;;4936937;29;20073;-71
2023/04/17 00:09:03;;;;;;;26.58;16.02;;;;;;;;;;4942128;28;20050;-71
2023/04/17 00:11:29;;;;;;;24.85;15.70;;;;;;;;;;4955246;28;20152;-71
2023/04/17 00:13:55;;;;;;;26.17;16.23;;;;;;;;;;4955165;28;20177;-71
2023/04/17 00:16:21;;;;;;;23.35;14.40;;;;;;;;;;4959327;28;20518;-70
2023/04/17 00:18:47;;;;;;;28.63;17.42;;;;;;;;;;4944219;28;20781;-71
2023/04/17 00:21:13;;;;;;;26.60;15.65;;;;;;;;;;4939627;29;20126;-71
2023/04/17 00:23:39;;;;;;;25.77;16.60;;;;;;;;;;4937339;28;20142;-71
2023/04/17 00:26:05;;;;;;;25.40;15.75;;;;;;;;;;4934858;29;20051;-71
2023/04/17 00:28:32;;;;;;;27.33;17.05;;;;;;;;;;4939452;28;20043;-70
2023/04/17 00:30:58;;;;;;;26.83;16.42;;;;;;;;;;4958127;28;20042;-71
2023/04/17 00:33:24;;;;;;;26.80;16.92;;;;;;;;;;4938762;28;20062;-70
2023/04/17 00:35:50;;;;;;;25.70;16.02;;;8.40;99.90;;;;;;4942577;28;20121;-71
2023/04/17 00:38:16;;;;;;;24.85;16.73;;;;;;;;;;4954809;28;20042;-70
2023/04/17 00:40:44;;;;;;;30.27;17.48;;;;;;;;;;4938044;28;20125;-70
2023/04/17 00:43:10;;;;;;;30.15;18.40;;;;;;;;;;4946367;28;20527;-71
2023/04/17 00:45:36;;;;;;;28.33;17.75;;;;;;;;;;4942281;28;20065;-70
2023/04/17 00:48:05;;;;;;;30.40;18.50;;;;;;;;;;4938700;28;20050;-71
2023/04/17 00:50:31;;;;;;;29.88;17.50;;;;;;;;;;4959936;28;20156;-71
2023/04/17 00:52:58;;;;;;;30.17;18.85;;;;;;;;;;4940719;28;20065;-71
2023/04/17 00:55:25;;;;;;;28.10;17.50;;;;;;;;;;4941883;28;20051;-71
2023/04/17 00:57:50;;;;;;;32.30;18.13;;;8.40;99.90;;;;;;4938878;29;20453;-71
2023/04/17 01:00:17;;;;;;;29.75;17.75;;;;;;;;;;4939447;28;20038;-71
2023/04/17 01:02:46;;;;;;;29.85;18.92;;;8.30;99.90;;;;;;4939789;29;20047;-71
2023/04/17 01:05:12;;;;;;;29.55;18.42;;;;;;;;;;4963583;28;20129;-71
2023/04/17 01:07:40;;;;;;;28.67;18.45;;;;;;;;;;4941333;28;20746;-71
2023/04/17 01:10:06;;;;;;;29.67;17.58;;;;;;;;;;4943811;28;20063;-70
2023/04/17 01:12:32;;;;;;;32.00;18.95;;;8.40;99.90;;;;;;4934490;28;20047;-71
2023/04/17 01:14:58;;;;;;;27.95;17.63;;;;;;;;;;4943561;28;20039;-71
2023/04/17 01:17:27;;;;;;;29.90;18.80;;;;;;;;;;4938583;28;20592;-70
2023/04/17 01:19:53;;;;;;;33.97;20.70;;;;;;;;;;4961537;28;20106;-70
2023/04/17 01:22:20;;;;;;;33.55;19.23;;;;;;;;;;4956091;28;20808;-71
2023/04/17 01:24:46;;;;;;;36.42;19.20;;;;;;;;;;4957410;28;20114;-70
2023/04/17 01:27:15;;;;;;;35.10;18.50;;;8.30;99.90;;;;;;4959936;28;20042;-70
2023/04/17 01:29:41;;;;;;;32.00;18.45;;;;;;;;;;4942651;28;20041;-70
2023/04/17 01:32:07;;;;;;;30.63;18.90;;;;;;;;;;4939949;28;20525;-70
2023/04/17 01:34:34;;;;;;;33.17;19.63;;;;;;;;;;4939435;28;20130;-70
2023/04/17 01:37:00;;;;;;;32.45;19.38;;;;;;;;;;4954213;28;20512;-70
2023/04/17 01:39:26;;;;;;;34.42;19.52;;;;;;;;;;4940764;28;20047;-70
2023/04/17 01:41:53;;;;;;;33.67;21.23;;;;;;;;;;4945437;28;20047;-70
2023/04/17 01:44:19;;;;;;;36.92;19.27;;;;;;;;;;4919114;29;20054;-70
2023/04/17 01:46:45;;;;;;;33.63;18.98;;;;;;;;;;4939922;28;20115;-70
2023/04/17 01:49:11;;;;;;;32.17;19.75;;;;;;;;;;4959061;28;20086;-70
2023/04/17 01:51:37;;;;;;;33.17;19.70;;;;;;;;;;4956651;28;20043;-70
2023/04/17 01:54:02;;;;;;;39.20;21.88;;;8.30;99.90;;;;;;4956993;28;20092;-70
2023/04/17 01:56:28;;;;;;;37.58;20.90;;;8.20;99.90;;;;;;4954392;28;20027;-70
2023/04/17 01:58:54;;;;;;;36.35;21.02;;;;;;;;;;4954078;28;20043;-70
2023/04/17 02:01:20;;;;;;;38.78;22.13;;;;;;;;;;4961001;28;20043;-70
2023/04/17 02:03:46;;;;;;;42.03;21.20;;;;;;;;;;4961583;28;20042;-70
2023/04/17 02:06:12;;;;;;;36.72;20.52;;;;;;;;;;4938944;28;20105;-70
2023/04/17 02:08:38;;;;;;;39.63;22.85;;;8.20;99.90;;;;;;4938202;28;20051;-70
2023/04/17 02:11:03;;;;;;;42.08;21.27;;;8.20;99.90;;;;;;4938880;28;20787;-70
2023/04/17 02:13:29;;;;;;;43.33;22.65;;;;;;;;;;4943826;28;20420;-70
2023/04/17 02:15:55;;;;;;;38.20;21.85;;;;;;;;;;4939045;28;20548;-70
2023/04/17 02:18:22;;;;;;;38.35;22.63;;;;;;;;;;4943783;28;20055;-70
2023/04/17 02:20:47;;;;;;;46.78;22.63;;;;;;;;;;4938420;28;20055;-70
2023/04/17 02:23:13;;;;;;;44.03;23.65;;;;;;;;;;4940628;28;20089;-70
2023/04/17 02:25:39;;;;;;;38.13;22.85;;;;;;;;;;4937698;28;20102;-70
2023/04/17 02:28:05;;;;;;;41.83;22.48;;;;;;;;;;4957093;28;20059;-70
2023/04/17 02:30:31;;;;;;;40.80;23.60;;;;;;;;;;4936925;28;20039;-70
2023/04/17 02:32:58;;;;;;;46.38;24.17;;;;;;;;;;4943585;28;20165;-70
2023/04/17 02:35:25;;;;;;;50.42;24.75;;;;;;;;;;4958535;28;20062;-70
2023/04/17 02:37:51;;;;;;;44.08;23.85;;;;;;;;;;4941128;28;20043;-70
2023/04/17 02:40:17;;;;;;;41.42;23.30;;;8.30;99.90;;;;;;4937454;28;20051;-70
2023/04/17 02:42:42;;;;;;;40.97;23.88;;;;;;;;;;4946816;28;20076;-70
2023/04/17 02:45:09;;;;;;;39.10;23.65;;;8.30;99.90;;;;;;4963480;28;20402;-70
2023/04/17 02:47:35;;;;;;;44.08;24.25;;;;;;;;;;4945820;28;20085;-70
2023/04/17 02:50:02;;;;;;;44.63;25.10;;;;;;;;;;4940537;28;20050;-70
2023/04/17 02:52:28;;;;;;;43.40;23.85;;;;;;;;;;4961244;28;20046;-70
2023/04/17 02:54:57;;;;;;;47.42;25.02;;;;;;;;;;4943111;28;20081;-71
2023/04/17 02:57:24;;;;;;;44.83;24.90;;;;;;;;;;4941260;28;20043;-71
2023/04/17 02:59:50;;;;;;;47.47;24.92;;;8.30;99.90;;;;;;4942560;28;20398;-70
2023/04/17 03:02:20;;;;;;;47.47;25.70;;;;;;;;;;4963675;28;20043;-70
2023/04/17 03:04:48;;;;;;;45.65;25.38;;;;;;;;;;4965768;28;20039;-71
2023/04/17 03:07:17;;;;;;;46.78;26.00;;;;;;;;;;4944979;28;20051;-70
2023/04/17 03:09:45;;;;;;;48.47;25.70;;;;;;;;;;4948487;28;20121;-70
2023/04/17 03:12:12;;;;;;;47.58;25.38;;;;;;;;;;4963539;28;20528;-70
2023/04/17 03:14:37;;;;;;;55.85;27.35;;;;;;;;;;4941454;28;20062;-70
2023/04/17 03:17:03;;;;;;;46.70;25.73;;;;;;;;;;4957104;28;20051;-70
2023/04/17 03:19:29;;;;;;;50.97;26.33;;;;;;;;;;4941002;28;20051;-71
2023/04/17 03:21:55;;;;;;;49.75;25.98;;;;;;;;;;4958868;28;20043;-70
2023/04/17 03:24:21;;;;;;;46.17;25.17;;;;;;;;;;4955120;28;20058;-69
2023/04/17 03:26:47;;;;;;;50.40;25.98;;;;;;;;;;4940174;28;20093;-70
2023/04/17 03:29:13;;;;;;;53.95;25.58;;;;;;;;;;4964844;28;20457;-70
2023/04/17 03:31:39;;;;;;;47.60;26.15;;;;;;;;;;4965380;28;20039;-70
2023/04/17 03:34:05;;;;;;;46.83;25.45;;;;;;;;;;4959769;28;20089;-70
2023/04/17 03:36:31;;;;;;;52.70;26.30;;;;;;;;;;4945277;28;20043;-70
2023/04/17 03:38:57;;;;;;;43.55;24.10;;;;;;;;;;4945263;28;20081;-70
2023/04/17 03:41:23;;;;;;;47.10;25.00;;;;;;;;;;4945927;28;20125;-70
2023/04/17 03:43:49;;;;;;;44.95;25.40;;;;;;;;;;4962302;28;20074;-70
2023/04/17 03:46:16;;;;;;;48.05;24.52;;;;;;;;;;4942327;28;20402;-70
2023/04/17 03:48:42;;;;;;;53.42;26.92;;;;;;;;;;4956536;28;20049;-70
2023/04/17 03:51:08;;;;;;;47.08;24.90;;;;;;;;;;4957905;28;20059;-70
2023/04/17 03:53:34;;;;;;;44.42;25.10;;;;;;;;;;4961715;28;20106;-70
2023/04/17 03:55:59;;;;;;;45.17;24.42;;;8.40;99.90;;;;;;4946644;28;20050;-70
2023/04/17 03:58:25;;;;;;;39.70;22.60;;;8.40;99.90;;;;;;4945526;28;20038;-70
2023/04/17 04:00:54;;;;;;;40.95;24.30;;;;;;;;;;4943288;28;20042;-70
2023/04/17 04:03:20;;;;;;;46.75;24.63;;;8.30;99.90;;;;;;4960829;28;20456;-70
2023/04/17 04:05:46;;;;;;;36.05;23.02;;;;;;;;;;4930253;28;20051;-70
2023/04/17 04:08:12;;;;;;;39.13;22.77;;;;;;;;;;4958991;28;20073;-70
2023/04/17 04:10:38;;;;;;;43.25;22.08;;;;;;;;;;4959017;28;20493;-70
2023/04/17 04:13:04;;;;;;;38.45;22.08;;;;;;;;;;4962850;28;20043;-70
2023/04/17 04:15:30;;;;;;;46.10;25.30;;;;;;;;;;4960773;28;20043;-70
2023/04/17 04:17:56;;;;;;;42.38;23.77;;;;;;;;;;4946666;28;20035;-70
2023/04/17 04:20:22;;;;;;;41.97;22.52;;;;;;;;;;4964734;28;20126;-70
2023/04/17 04:22:48;;;;;;;41.58;22.35;;;;;;;;;;4963025;28;20141;-69
2023/04/17 04:25:14;;;;;;;45.42;24.42;;;;;;;;;;4965973;28;20050;-69
2023/04/17 04:27:48;;;;;;;39.95;23.80;;;;;;;;;;4943241;29;20070;-70
2023/04/17 04:30:15;;;;;;;38.88;21.85;;;;;;;;;;4936996;28;20513;-69
2023/04/17 04:32:41;;;;;;;39.60;23.00;;;8.20;99.90;;;;;;4945343;28;20501;-70
2023/04/17 04:35:08;;;;;;;41.05;23.80;;;;;;;;;;4962913;28;20047;-70
2023/04/17 04:37:34;;;;;;;44.00;23.45;;;;;;;;;;4958361;28;20051;-70
2023/04/17 04:40:01;;;;;;;44.30;23.65;;;;;;;;;;4935306;28;20082;-70
2023/04/17 04:42:30;;;;;;;41.53;23.63;;;;;;;;;;4958323;28;20070;-70
2023/04/17 04:44:55;;;;;;;41.55;24.02;;;8.00;99.90;;;;;;4955141;28;20110;-70
2023/04/17 04:47:22;;;;;;;41.92;23.58;;;;;;;;;;4939765;29;20490;-70
2023/04/17 04:49:48;;;;;;;47.95;23.85;;;;;;;;;;4937804;28;20680;-70
2023/04/17 04:52:14;;;;;;;45.53;24.25;;;;;;;;;;4953052;28;20047;-70
2023/04/17 04:54:40;;;;;;;41.22;22.77;;;;;;;;;;4941578;28;20047;-71
2023/04/17 04:57:06;;;;;;;44.67;23.80;;;;;;;;;;4942745;29;20147;-70
2023/04/17 04:59:31;;;;;;;57.03;23.00;;;8.00;99.90;;;;;;4961432;28;20043;-70
2023/04/17 05:01:57;;;;;;;40.13;20.73;;;;;;;;;;4942306;28;20145;-70
2023/04/17 05:04:23;;;;;;;44.05;21.50;;;;;;;;;;4960767;28;20529;-70
2023/04/17 05:06:49;;;;;;;50.83;22.85;;;;;;;;;;4946111;28;20053;-70
2023/04/17 05:09:15;;;;;;;46.00;22.33;;;;;;;;;;4943876;28;21199;-70
2023/04/17 05:11:41;;;;;;;42.03;22.88;;;;;;;;;;4945449;28;20058;-70
2023/04/17 05:14:07;;;;;;;39.33;22.52;;;;;;;;;;4941210;29;20168;-70
2023/04/17 05:16:33;;;;;;;44.80;23.40;;;;;;;;;;4940024;28;20046;-70
2023/04/17 05:18:59;;;;;;;43.92;22.13;;;;;;;;;;4935805;28;20048;-70
2023/04/17 05:21:26;;;;;;;43.17;21.10;;;;;;;;;;4954656;28;20054;-70
2023/04/17 05:23:52;;;;;;;44.53;21.85;;;7.90;99.90;;;;;;4955557;28;20063;-70
2023/04/17 05:26:20;;;;;;;36.40;20.60;;;;;;;;;;4941208;28;20134;-70
2023/04/17 05:28:46;;;;;;;40.28;22.05;;;;;;;;;;4945413;28;20105;-70
2023/04/17 05:31:13;;;;;;;42.92;22.83;;;;;;;;;;4960186;28;20685;-70
2023/04/17 05:33:39;;;;;;;41.50;20.90;;;;;;;;;;4945458;28;20161;-70
2023/04/17 05:36:06;;;;;;;42.00;20.17;;;;;;;;;;4939659;28;20460;-70
2023/04/17 05:38:32;;;;;;;36.92;18.98;;;;;;;;;;4935346;29;20127;-70
2023/04/17 05:40:58;;;;;;;34.88;18.90;;;;;;;;;;4958792;28;20068;-70
2023/04/17 05:43:24;;;;;;;36.92;19.10;;;;;;;;;;4934176;28;20073;-70
2023/04/17 05:45:50;;;;;;;39.38;19.60;;;;;;;;;;4940312;28;20047;-70
2023/04/17 05:48:16;;;;;;;30.90;18.60;;;;;;;;;;4958935;28;20034;-70
2023/04/17 05:50:42;;;;;;;33.33;19.83;;;;;;;;;;4941776;28;20524;-70
2023/04/17 05:53:08;;;;;;;38.97;21.30;;;;;;;;;;4964127;28;20082;-70
2023/04/17 05:55:34;;;;;;;40.00;20.63;;;;;;;;;;4957479;28;20086;-70
2023/04/17 05:58:01;;;;;;;34.88;19.95;;;;;;;;;;4945843;28;20576;-70
2023/04/17 06:00:27;;;;;;;36.88;21.70;;;;;;;;;;4942554;28;20062;-70
2023/04/17 06:02:53;;;;;;;38.00;20.80;;;;;;;;;;4940564;28;20056;-70
2023/04/17 06:05:20;;;;;;;42.13;22.42;;;;;;;;;;4957689;28;20050;-70
2023/04/17 06:07:46;;;;;;;34.65;21.50;;;;;;;;;;4934787;28;20050;-70
2023/04/17 06:10:13;;;;;;;40.58;22.80;;;;;;;;;;4936933;28;21250;-70
2023/04/17 06:12:39;;;;;;;50.22;22.98;;;;;;;;;;4957585;28;20098;-70
2023/04/17 06:15:07;;;;;;;40.63;23.13;;;;;;;;;;4947874;28;20684;-70
2023/04/17 06:17:34;;;;;;;37.90;21.35;;;;;;;;;;4965703;28;20066;-70
2023/04/17 06:20:00;;;;;;;37.42;21.92;;;;;;;;;;4960653;28;20122;-70
2023/04/17 06:22:26;;;;;;;36.47;20.50;;;;;;;;;;4962534;28;20133;-70
2023/04/17 06:24:52;;;;;;;36.40;20.83;;;;;;;;;;4959494;28;20473;-70
2023/04/17 06:27:18;;;;;;;37.78;20.73;;;;;;;;;;4943730;28;20058;-70
2023/04/17 06:29:44;;;;;;;40.97;22.58;;;;;;;;;;4941043;28;20046;-70
2023/04/17 06:32:10;;;;;;;46.45;23.80;;;;;;;;;;4962837;28;20047;-70
2023/04/17 06:34:36;;;;;;;43.28;22.45;;;;;;;;;;4959177;28;20047;-70
2023/04/17 06:37:02;;;;;;;42.42;22.73;;;;;;;;;;4946005;28;20046;-70
2023/04/17 06:39:28;;;;;;;40.85;22.85;;;;;;;;;;4943560;28;20054;-71
2023/04/17 06:41:55;;;;;;;38.40;21.75;;;;;;;;;;4960375;28;20057;-71
2023/04/17 06:44:21;;;;;;;39.80;22.38;;;;;;;;;;4960764;28;20039;-71
2023/04/17 06:46:50;;;;;;;45.15;24.98;;;;;;;;;;4961972;28;20613;-70
2023/04/17 06:49:16;;;;;;;45.42;23.20;;;;;;;;;;4948414;28;20115;-70
2023/04/17 06:51:44;;;;;;;42.13;22.88;;;;;;;;;;4942797;28;20654;-71
2023/04/17 06:54:10;;;;;;;42.15;23.02;;;;;;;;;;4942302;28;20059;-72
2023/04/17 06:56:36;;;;;;;38.17;23.15;;;;;;;;;;4943202;28;20042;-72
2023/04/17 06:59:02;;;;;;;39.25;21.33;;;;;;;;;;4948896;28;20047;-74
2023/04/17 07:01:30;;;;;;;38.00;22.00;;;8.50;99.90;;;;;;4941056;28;20042;-73
2023/04/17 07:03:56;;;;;;;41.78;22.15;;;;;;;;;;4934489;28;20072;-71
2023/04/17 07:06:23;;;;;;;44.75;24.33;;;;;;;;;;4940531;28;20418;-73
2023/04/17 07:08:50;;;;;;;44.05;23.23;;;;;;;;;;4950911;28;20055;-73
2023/04/17 07:11:16;;;;;;;38.13;21.38;;;;;;;;;;4936625;29;20055;-72
2023/04/17 07:13:42;;;;;;;46.75;25.17;;;;;;;;;;4941377;28;20621;-71
2023/04/17 07:16:08;;;;;;;46.40;24.23;;;;;;;;;;4937686;29;20079;-71
2023/04/17 07:18:34;;;;;;;43.58;22.88;;;;;;;;;;4944308;28;20055;-71
2023/04/17 07:21:00;;;;;;;44.72;23.60;;;;;;;;;;4944384;28;20054;-71
2023/04/17 07:23:26;;;;;;;46.25;24.75;;;;;;;;;;4948668;28;20067;-71
2023/04/17 07:25:52;;;;;;;42.40;24.35;;;;;;;;;;4941022;28;20065;-71
2023/04/17 07:28:19;;;;;;;46.35;24.27;;;;;;;;;;4951721;28;20057;-72
2023/04/17 07:30:45;;;;;;;44.85;24.42;;;;;;;;;;4935206;28;20523;-72
2023/04/17 07:33:11;;;;;;;46.25;24.85;;;;;;;;;;4941749;28;20118;-72
2023/04/17 07:35:37;;;;;;;42.42;23.48;;;;;;;;;;4935772;28;20071;-72
2023/04/17 07:38:03;;;;;;;45.70;23.85;;;8.80;99.90;;;;;;4943776;28;20130;-71
2023/04/17 07:40:29;;;;;;;42.63;24.70;;;;;;;;;;4927719;28;20051;-71
2023/04/17 07:42:55;;;;;;;42.03;23.85;;;;;;;;;;4941587;28;20054;-70
2023/04/17 07:45:26;;;;;;;43.50;24.60;;;;;;;;;;4932736;28;20725;-71
2023/04/17 07:47:52;;;;;;;48.13;25.13;;;;;;;;;;4934657;28;20055;-71
2023/04/17 07:50:18;;;;;;;45.65;26.98;;;;;;;;;;4934547;28;20062;-72
2023/04/17 07:52:45;;;;;;;42.33;23.67;;;;;;;;;;4936676;28;20785;-72
2023/04/17 07:55:10;;;;;;;45.90;27.10;;;9.30;99.90;;;;;;4954811;28;20055;-71
2023/04/17 07:57:41;;;;;;;47.58;25.65;;;;;;;;;;4942017;28;20556;-71
2023/04/17 08:00:09;;;;;;;45.15;25.15;;;;;;;;;;4930891;28;20053;-73
2023/04/17 08:02:35;;;;;;;45.42;24.92;;;9.40;99.90;;;;;;4939903;28;20043;-73
2023/04/17 08:05:00;;;;;;;45.95;25.63;;;9.50;99.90;;;;;;4929493;28;20494;-71
2023/04/17 08:07:26;;;;;;;46.78;27.20;;;;;;;;;;4956783;28;20168;-71
2023/04/17 08:09:52;;;;;;;44.00;25.75;;;9.40;99.90;;;;;;4939278;29;20784;-71
2023/04/17 08:12:18;;;;;;;39.08;23.60;;;;;;;;;;4942795;28;20117;-71
2023/04/17 08:14:44;;;;;;;38.67;23.45;;;;;;;;;;4940823;28;20055;-71
2023/04/17 08:17:10;;;;;;;39.28;24.23;;;;;;;;;;4938157;28;20058;-72
2023/04/17 08:19:36;;;;;;;45.75;27.25;;;;;;;;;;4930519;29;20417;-72
2023/04/17 08:22:03;;;;;;;46.88;26.75;;;;;;;;;;4930741;29;20134;-72
2023/04/17 08:24:30;;;;;;;45.65;26.13;;;;;;;;;;4964524;28;20078;-72
2023/04/17 08:26:56;;;;;;;46.97;26.27;;;;;;;;;;4966350;28;20408;-72
2023/04/17 08:29:22;;;;;;;40.80;25.88;;;;;;;;;;4941412;28;20051;-72
2023/04/17 08:31:48;;;;;;;40.47;25.10;;;;;;;;;;4939851;28;20136;-72
2023/04/17 08:34:14;;;;;;;40.00;26.05;;;;;;;;;;4939832;28;20059;-72
2023/04/17 08:36:40;;;;;;;46.83;27.05;;;;;;;;;;4960702;28;20038;-72
2023/04/17 08:39:08;;;;;;;39.08;25.35;;;;;;;;;;4957573;28;20833;-70
2023/04/17 08:41:41;;;;;;;43.60;27.98;;;10.60;99.90;;;;;;4935448;28;20046;-70
2023/04/17 08:44:07;;;;;;;41.03;26.40;;;;;;;;;;4947445;28;20735;-70
2023/04/17 08:46:35;;;;;;;39.83;24.73;;;10.70;99.90;;;;;;4940093;28;20166;-70
2023/04/17 08:49:01;;;;;;;36.75;23.95;;;10.80;99.90;;;;;;4942312;28;20061;-71
2023/04/17 08:51:28;;;;;;;39.10;25.40;;;;;;;;;;4942901;28;20042;-69
2023/04/17 08:53:54;;;;;;;37.00;24.17;;;;;;;;;;4939646;28;20146;-71
2023/04/17 08:56:21;;;;;;;39.50;26.77;;;;;;;;;;4938974;28;20046;-70
2023/04/17 08:58:46;;;;;;;38.30;25.85;;;11.90;99.90;;;;;;4963802;28;20053;-70
2023/04/17 09:01:15;;;;;;;41.15;26.45;;;;;;;;;;4961213;28;20046;-70
2023/04/17 09:03:42;;;;;;;36.40;24.70;;;;;;;;;;4959143;28;20058;-71
2023/04/17 09:06:11;;;;;;;36.35;25.13;;;11.80;99.90;;;;;;4946859;28;20083;-70
2023/04/17 09:08:38;;;;;;;36.45;24.52;;;12.00;99.90;;;;;;4955226;28;20094;-70
2023/04/17 09:11:04;;;;;;;39.65;25.67;;;11.90;99.90;;;;;;4959945;28;20042;-70
2023/04/17 09:13:38;;;;;;;34.35;24.27;;;11.90;99.90;;;;;;4940865;29;20486;-70
2023/04/17 09:16:05;;;;;;;38.20;25.60;;;11.80;99.90;;;;;;4964223;28;20050;-71
2023/04/17 09:18:31;;;;;;;35.80;23.60;;;;;;;;;;4944433;28;20042;-70
2023/04/17 09:20:58;;;;;;;35.40;24.15;;;11.90;99.90;;;;;;4945652;28;20049;-70
2023/04/17 09:23:25;;;;;;;36.47;22.98;;;12.00;99.90;;;;;;4947176;28;20070;-70
2023/04/17 09:26:11;;;;;;;32.35;22.40;;;12.30;99.90;;;;;;4943004;28;20106;-70
2023/04/17 09:28:38;;;;;;;36.03;23.73;;;12.50;99.90;;;;;;4928620;28;20054;-71
2023/04/17 09:31:06;;;;;;;30.00;22.60;;;12.60;99.90;;;;;;4964255;28;20054;-70
2023/04/17 09:33:32;;;;;;;34.85;23.88;;;;;;;;;;4957635;28;20050;-71
2023/04/17 09:36:20;;;;;;;31.25;22.95;;;;;;;;;;4940849;28;20555;-70
2023/04/17 09:38:46;;;;;;;32.72;23.35;;;;;;;;;;4946925;28;20407;-70
2023/04/17 09:41:26;;;;;;;33.40;24.20;;;13.40;99.90;;;;;;4962818;28;20047;-70
2023/04/17 09:43:56;;;;;;;32.97;23.40;;;13.00;99.90;;;;;;4950320;28;20089;-71
2023/04/17 09:46:37;;;;;;;32.35;24.52;;;13.20;99.90;;;;;;4937805;28;20093;-70
2023/04/17 09:49:22;;;;;;;33.42;22.67;;;13.30;99.90;;;;;;4961064;28;20035;-71
2023/04/17 09:51:49;;;;;;;32.00;25.00;;;13.40;99.90;;;;;;4945013;28;20493;-70
2023/04/17 09:54:16;;;;;;;34.78;25.00;;;13.70;99.90;;;;;;4948405;28;20078;-71
2023/04/17 09:56:42;;;;;;;34.85;25.65;;;13.90;99.90;;;;;;4945387;28;20753;-70
2023/04/17 09:59:08;;;;;;;32.20;25.42;;;14.10;99.90;;;;;;4957365;28;20062;-71
2023/04/17 10:01:36;;;;;;;34.83;26.90;;;14.40;99.90;;;;;;4967511;28;20572;-70
2023/04/17 10:04:03;;;;;;;34.00;26.70;;;14.40;99.90;;;;;;4965682;28;20050;-70
2023/04/17 10:06:34;;;;;;;36.60;25.40;;;14.50;99.90;;;;;;4950899;28;20042;-70
2023/04/17 10:09:00;;;;;;;31.08;25.10;;;14.40;99.90;;;;;;4946001;28;20126;-70
2023/04/17 10:11:34;;;;;;;29.33;23.02;;;14.70;99.90;;;;;;4946262;28;20162;-70
2023/04/17 10:14:18;;;;;;;30.73;23.77;;;14.80;99.90;;;;;;4943760;28;20090;-70
2023/04/17 10:16:45;;;;;;;30.45;23.15;;;;;;;;;;4944538;28;20102;-71
2023/04/17 10:19:31;;;;;;;30.27;22.88;;;14.70;99.90;;;;;;4961754;28;20058;-71
2023/04/17 10:22:16;;;;;;;26.95;21.40;;;14.90;99.90;;;;;;4962054;28;20051;-71
2023/04/17 10:25:16;;;;;;;26.13;21.70;;;15.10;99.90;;;;;;4940166;28;20230;-71
2023/04/17 10:27:44;;;;;;;26.98;20.80;;;;;;;;;;4941469;28;20363;-70
2023/04/17 10:30:11;;;;;;;27.48;20.55;;;15.10;99.90;;;;;;4943631;28;20497;-70
2023/04/17 10:32:43;;;;;;;26.90;22.10;;;15.30;99.90;;;;;;4948114;28;20066;-71
2023/04/17 10:35:15;;;;;;;26.27;20.20;;;15.30;99.90;;;;;;4942823;29;20041;-71
2023/04/17 10:37:49;;;;;;;23.75;19.30;;;15.40;99.90;;;;;;4943992;28;20058;-71
2023/04/17 10:40:20;;;;;;;28.80;20.33;;;15.60;99.90;;;;;;4944337;28;20051;-71
2023/04/17 10:43:18;;;;;;;30.08;19.98;;;15.70;99.90;;;;;;4964377;28;20073;-71
2023/04/17 10:46:05;;;;;;;21.95;16.65;;;15.30;99.90;;;;;;4959839;28;20126;-71
2023/04/17 10:48:49;;;;;;;22.83;17.20;;;15.20;99.90;;;;;;4947623;28;20035;-71
2023/04/17 10:51:20;;;;;;;18.90;15.95;;;15.10;99.90;;;;;;4954090;28;20039;-70
2023/04/17 10:53:48;;;;;;;22.80;16.95;;;15.20;99.90;;;;;;4956304;28;20133;-71
2023/04/17 10:56:23;;;;;;;22.35;18.13;;;15.40;99.90;;;;;;4949860;28;20047;-71
2023/04/17 10:58:59;;;;;;;22.70;16.85;;;15.70;99.90;;;;;;4935698;29;20039;-71
2023/04/17 11:01:28;;;;;;;20.48;16.63;;;15.60;99.90;;;;;;4939631;28;20119;-71
2023/04/17 11:03:54;;;;;;;22.80;17.80;;;;;;;;;;4962775;28;20421;-71
2023/04/17 11:06:20;;;;;;;22.35;17.73;;;;;;;;;;4942290;28;20166;-71
2023/04/17 11:08:48;;;;;;;23.25;18.48;;;15.70;99.90;;;;;;4958714;28;20046;-71
2023/04/17 11:11:16;;;;;;;19.73;15.98;;;15.50;99.90;;;;;;4961882;28;20086;-71
2023/04/17 11:13:46;;;;;;;21.85;15.73;;;15.10;99.90;;;;;;4932398;28;20196;-70
2023/04/17 11:16:13;;;;;;;18.23;16.17;;;15.00;99.90;;;;;;4941822;29;20118;-71
2023/04/17 11:18:39;;;;;;;22.65;15.07;;;;;;;;;;4956103;28;20046;-71
2023/04/17 11:21:05;;;;;;;21.58;14.50;;;;;;;;;;4964182;28;20035;-71
2023/04/17 11:23:32;;;;;;;18.88;13.85;;;14.60;99.90;;;;;;4948183;28;20421;-71
2023/04/17 11:25:59;;;;;;;21.45;14.95;;;14.50;99.90;;;;;;4961173;28;20047;-70
2023/04/17 11:28:25;;;;;;;19.85;13.48;;;;;;;;;;4961975;28;20520;-71
2023/04/17 11:30:51;;;;;;;21.75;14.25;;;14.50;99.90;;;;;;4939342;29;20090;-71
2023/04/17 11:33:17;;;;;;;17.73;13.45;;;;;;;;;;4944139;28;20051;-71
2023/04/17 11:35:43;;;;;;;18.23;14.23;;;;;;;;;;4956310;28;20126;-71
2023/04/17 11:38:10;;;;;;;19.58;14.65;;;14.70;99.90;;;;;;4938132;28;20062;-71
2023/04/17 11:40:46;;;;;;;19.65;14.95;;;14.90;99.90;;;;;;4934908;29;20696;-71
2023/04/17 11:43:12;;;;;;;20.27;13.98;;;15.10;99.90;;;;;;4947224;28;20061;-70
2023/04/17 11:45:40;;;;;;;19.63;15.05;;;15.30;99.90;;;;;;4948537;28;20051;-70
2023/04/17 11:48:08;;;;;;;19.42;14.75;;;15.40;99.90;;;;;;4960510;28;20043;-71
2023/04/17 11:50:34;;;;;;;18.73;14.20;;;;;;;;;;4942340;28;20137;-71
2023/04/17 11:53:01;;;;;;;19.55;14.35;;;15.30;99.90;;;;;;4944461;28;20456;-71
2023/04/17 11:55:30;;;;;;;19.23;14.13;;;;;;;;;;4956668;28;20808;-71
2023/04/17 11:58:04;;;;;;;16.58;13.15;;;15.40;99.90;;;;;;4954596;28;20054;-71
2023/04/17 12:00:31;;;;;;;16.92;13.20;;;;;;;;;;4942609;28;20097;-71
2023/04/17 12:03:01;;;;;;;18.83;13.45;;;15.40;99.90;;;;;;4941014;28;20061;-71
2023/04/17 12:05:28;;;;;;;18.83;12.73;;;15.30;99.90;;;;;;4947143;28;20653;-71
2023/04/17 12:08:06;;;;;;;15.75;11.90;;;15.60;99.90;;;;;;4946893;28;20046;-71
2023/04/17 12:10:39;;;;;;;17.17;12.85;;;15.80;99.90;;;;;;4944583;28;20058;-71
2023/04/17 12:13:05;;;;;;;16.73;13.52;;;;;;;;;;4941282;28;20086;-71
2023/04/17 12:15:31;;;;;;;17.90;12.77;;;;;;;;;;4942237;28;20042;-71
2023/04/17 12:17:57;;;;;;;18.00;12.48;;;15.80;99.90;;;;;;4945560;28;20178;-71
2023/04/17 12:20:23;;;;;;;17.30;12.70;;;;;;;;;;4940897;28;20043;-71
2023/04/17 12:22:48;;;;;;;19.08;11.80;;;15.80;99.90;;;;;;4957178;28;20509;-71
2023/04/17 12:25:14;;;;;;;18.58;13.07;;;;;;;;;;4957823;28;20055;-71
2023/04/17 12:27:40;;;;;;;18.98;13.00;;;15.90;99.90;;;;;;4943852;28;20186;-71
2023/04/17 12:30:06;;;;;;;17.20;11.88;;;15.80;99.90;;;;;;4960191;28;20046;-71
2023/04/17 12:32:31;;;;;;;18.13;12.25;;;15.60;99.90;;;;;;4941583;28;20544;-71
2023/04/17 12:34:57;;;;;;;16.10;12.20;;;;;;;;;;4936096;29;20098;-71
2023/04/17 12:37:24;;;;;;;19.08;13.43;;;;;;;;;;4958040;28;20043;-71
2023/04/17 12:39:50;;;;;;;18.30;11.95;;;;;;;;;;4941448;28;20120;-71
2023/04/17 12:42:15;;;;;;;16.70;12.77;;;15.60;99.90;;;;;;4939377;28;20452;-71
2023/04/17 12:44:41;;;;;;;16.52;11.68;;;;;;;;;;4948279;28;20057;-71
2023/04/17 12:47:07;;;;;;;15.55;10.93;;;16.00;99.90;;;;;;4960072;28;20124;-71
2023/04/17 12:49:32;;;;;;;15.77;10.52;;;16.00;99.90;;;;;;4939987;29;20561;-71
2023/04/17 12:51:58;;;;;;;18.73;12.05;;;;;;;;;;4939098;28;20038;-71
2023/04/17 12:54:24;;;;;;;19.38;12.00;;;;;;;;;;4948348;28;20137;-71
2023/04/17 12:56:50;;;;;;;18.27;11.55;;;;;;;;;;4937229;28;20505;-71
2023/04/17 12:59:16;;;;;;;15.68;12.00;;;15.40;99.90;;;;;;4938503;28;20124;-71
2023/04/17 13:01:42;;;;;;;15.18;11.38;;;;;;;;;;4938003;28;20085;-71
2023/04/17 13:04:08;;;;;;;14.38;11.38;;;;;;;;;;4947355;28;20058;-71
2023/04/17 13:06:34;;;;;;;15.98;11.20;;;;;;;;;;4938375;28;20513;-71
2023/04/17 13:09:00;;;;;;;17.17;12.75;;;;;;;;;;4940629;29;20057;-71
2023/04/17 13:11:26;;;;;;;19.45;10.77;;;;;;;;;;4953058;28;20523;-71
2023/04/17 13:13:52;;;;;;;13.23;10.10;;;;;;;;;;4938597;28;20453;-71
2023/04/17 13:16:18;;;;;;;15.23;11.18;;;;;;;;;;4941131;28;20047;-71
2023/04/17 13:18:44;;;;;;;18.55;10.80;;;;;;;;;;4941086;28;20729;-71
2023/04/17 13:21:10;;;;;;;15.15;11.18;;;;;;;;;;4943071;28;20059;-71
2023/04/17 13:23:36;;;;;;;19.40;11.70;;;;;;;;;;4964046;28;20070;-71
2023/04/17 13:26:01;;;;;;;14.98;10.80;;;15.60;99.90;;;;;;4943664;28;20051;-72
2023/04/17 13:28:27;;;;;;;14.68;10.43;;;;;;;;;;4943398;28;20520;-72
2023/04/17 13:30:53;;;;;;;15.88;11.23;;;;;;;;;;4959215;28;20382;-71
2023/04/17 13:33:19;;;;;;;13.95;9.93;;;;;;;;;;4942461;28;20047;-71
2023/04/17 13:35:45;;;;;;;17.63;13.18;;;15.90;99.90;;;;;;4943845;28;20043;-71
2023/04/17 13:38:11;;;;;;;14.90;11.07;;;;;;;;;;4959326;28;20046;-71
2023/04/17 13:40:37;;;;;;;15.27;11.55;;;16.00;99.90;;;;;;4958236;28;20070;-71
2023/04/17 13:43:04;;;;;;;20.05;11.70;;;16.00;99.90;;;;;;4943045;28;20051;-71